Terminal Aerodrome Forecast
Issued by NWS

Home | Current Version | Previous Version | Graphics & Text | Print | Product List | Glossary On
Versions: 1 2 3 4 5 6 7 8 9 10 11 12 13 14 15 16 17 18 19 20 21 22 23 24 25 26 27 28 29 30
000
FTUS43 KLOT 192026 AAA
TAFORD
TAF AMD
KORD 192026Z 1920/2024 04016G24KT 5SM -SHRA SCT008 OVC010
      TEMPO 1920/1922 2SM -RA BR BKN008
     FM192200 04014G21KT P6SM OVC010
     FM200100 06012G18KT P6SM SCT010 BKN018 OVC030
      TEMPO 2010/2012 BKN007 OVC012
     FM201200 08012KT 6SM -SHRA BR VCTS OVC007CB
      TEMPO 2013/2016 2SM TSRA BR
     FM201700 12012G18KT 6SM BR OVC008 PROB30 2022/2024 4SM TSRA
      OVC015CB=

USA.gov is the U.S. government's official web portal to all federal, state and local government web resources and services.